Time;durP1;ratioP1;P1;durP2;ratioP2;P2;SDS_P1;SDS_P2;PMS_P1;PMS_P2;Temp;Humidity;BMP_temperature;BMP_pressure;BME280_temperature;BME280_humidity;BME280_pressure;Samples;Min_cycle;Max_cycle;Signal;HPM_P1;HPM_P2
2021/09/20 00:01:50;;;;;;;1.73;1.20;;;;;;;;;;5034253;28;20068;-89
2021/09/20 00:04:16;;;;;;;1.20;0.85;;;;;;;;;;5035843;28;20658;-90
2021/09/20 00:06:42;;;;;;;5.03;1.20;;;;;;;;;;5021289;28;20030;-89
2021/09/20 00:09:08;;;;;;;1.98;1.17;;;;;;;;;;5041859;28;20056;-90
2021/09/20 00:11:34;;;;;;;2.78;1.23;;;;;;;;;;5031732;28;20429;-88
2021/09/20 00:14:00;;;;;;;2.38;1.33;;;;;;;;;;5034825;28;20736;-89
2021/09/20 00:16:26;;;;;;;1.77;1.02;;;;;;;;;;5016354;28;20073;-89
2021/09/20 00:18:52;;;;;;;1.65;1.45;;;;;;;;;;5019919;28;20030;-87
2021/09/20 00:21:18;;;;;;;1.90;1.25;;;;;;;;;;5041761;28;20033;-88
2021/09/20 00:23:44;;;;;;;1.35;0.85;;;;;;;;;;5016103;28;20022;-88
2021/09/20 00:26:10;;;;;;;1.77;1.13;;;;;;;;;;5049215;28;20829;-89
2021/09/20 00:28:37;;;;;;;1.92;1.10;;;;;;;;;;5030915;28;20026;-89
2021/09/20 00:31:03;;;;;;;3.13;1.80;;;;;;;;;;5016031;28;20085;-90
2021/09/20 00:33:30;;;;;;;1.95;1.13;;;;;;;;;;5030102;28;20060;-89
2021/09/20 00:35:56;;;;;;;0.90;0.80;;;;;;;;;;5031560;28;20025;-90
2021/09/20 00:38:22;;;;;;;0.98;0.88;;;;;;;;;;5033775;28;20373;-89
2021/09/20 00:40:48;;;;;;;1.25;0.75;;;;;;;;;;5034745;28;20025;-90
2021/09/20 00:43:14;;;;;;;2.72;0.90;;;;;;;;;;5034405;28;20075;-89
2021/09/20 00:45:40;;;;;;;5.82;0.82;;;;;;;;;;5034795;28;20113;-89
2021/09/20 00:48:06;;;;;;;0.80;0.63;;;;;;;;;;5033774;28;20124;-88
2021/09/20 00:50:32;;;;;;;0.80;0.77;;;;;;;;;;5034771;28;20068;-90
2021/09/20 00:52:58;;;;;;;0.60;0.60;;;;;;;;;;5033153;28;20044;-87
2021/09/20 00:55:24;;;;;;;1.52;0.95;;;;;;;;;;5033769;28;20032;-89
2021/09/20 00:57:50;;;;;;;2.33;1.02;;;;;;;;;;5030717;28;20029;-89
2021/09/20 01:00:17;;;;;;;0.80;0.75;;;;;;;;;;5034146;28;20041;-89
2021/09/20 01:02:43;;;;;;;1.20;0.70;;;;;;;;;;5044671;28;20034;-89
2021/09/20 01:05:10;;;;;;;1.20;0.73;;;;;;;;;;5018958;28;20028;-88
2021/09/20 01:07:37;;;;;;;0.90;0.65;;;;;;;;;;5046350;28;20025;-89
2021/09/20 01:10:03;;;;;;;1.05;0.85;;;;;;;;;;5029641;28;20094;-87
2021/09/20 01:12:29;;;;;;;0.57;0.57;;;;;;;;;;5034356;28;20568;-89
2021/09/20 01:14:56;;;;;;;0.82;0.63;;;17.40;74.80;;;;;;5030360;28;20064;-90
2021/09/20 01:17:23;;;;;;;0.43;0.43;;;;;;;;;;5020781;28;20017;-89
2021/09/20 01:19:49;;;;;;;1.08;0.65;;;;;;;;;;5048943;28;20046;-89
2021/09/20 01:22:16;;;;;;;0.55;0.52;;;;;;;;;;5047104;28;20026;-88
2021/09/20 01:24:42;;;;;;;1.02;0.60;;;;;;;;;;5020716;28;20057;-90
2021/09/20 01:27:09;;;;;;;0.80;0.60;;;;;;;;;;5033225;28;20034;-89
2021/09/20 01:29:35;;;;;;;0.40;0.40;;;;;;;;;;5017915;28;20081;-88
2021/09/20 01:32:02;;;;;;;1.95;0.75;;;17.40;73.80;;;;;;5044957;28;20037;-88
2021/09/20 01:34:28;;;;;;;0.65;0.47;;;;;;;;;;5033927;28;20079;-89
2021/09/20 01:36:54;;;;;;;0.70;0.68;;;;;;;;;;5028333;28;20038;-88
2021/09/20 01:39:22;;;;;;;1.13;0.85;;;;;;;;;;5033240;28;20111;-88
2021/09/20 01:41:49;;;;;;;0.45;0.45;;;17.20;73.60;;;;;;5031598;28;20026;-89
2021/09/20 01:44:16;;;;;;;0.50;0.50;;;;;;;;;;5018215;28;20026;-89
2021/09/20 01:46:46;;;;;;;1.15;0.63;;;17.30;73.80;;;;;;5013310;28;20030;-89
2021/09/20 01:49:13;;;;;;;5.93;1.30;;;;;;;;;;5016702;28;20037;-89
2021/09/20 01:51:39;;;;;;;0.65;0.40;;;;;;;;;;5014050;28;20041;-89
2021/09/20 01:54:05;;;;;;;1.33;0.40;;;;;;;;;;5025288;28;20139;-89
2021/09/20 01:56:32;;;;;;;0.60;0.60;;;;;;;;;;5049383;28;20021;-89
2021/09/20 01:58:58;;;;;;;0.88;0.63;;;;;;;;;;5031682;28;20033;-89
2021/09/20 02:01:24;;;;;;;1.10;0.60;;;;;;;;;;5017672;28;20036;-90
2021/09/20 02:03:51;;;;;;;0.75;0.52;;;17.40;73.50;;;;;;5043864;28;20025;-90
2021/09/20 02:06:17;;;;;;;1.27;0.30;;;;;;;;;;5015420;28;20037;-89
2021/09/20 02:08:43;;;;;;;0.30;0.30;;;;;;;;;;5030456;28;20017;-90
2021/09/20 02:11:09;;;;;;;0.40;0.40;;;;;;;;;;5032366;28;20110;-89
2021/09/20 02:13:35;;;;;;;1.52;0.40;;;;;;;;;;5048568;28;20033;-87
2021/09/20 02:16:01;;;;;;;0.30;0.30;;;;;;;;;;5031508;28;20108;-89
2021/09/20 02:18:27;;;;;;;0.43;0.38;;;;;;;;;;5031952;28;20546;-90
2021/09/20 02:20:53;;;;;;;0.60;0.60;;;;;;;;;;5029242;28;20037;-87
2021/09/20 02:23:19;;;;;;;0.45;0.30;;;;;;;;;;5022285;28;20025;-88
2021/09/20 02:25:46;;;;;;;0.28;0.25;;;;;;;;;;5013017;28;20423;-87
2021/09/20 02:28:12;;;;;;;0.45;0.32;;;;;;;;;;5031095;28;20053;-88
2021/09/20 02:30:38;;;;;;;0.20;0.20;;;;;;;;;;5027121;28;20026;-89
2021/09/20 02:33:04;;;;;;;0.40;0.40;;;;;;;;;;5042606;28;20075;-88
2021/09/20 02:35:31;;;;;;;0.20;0.20;;;;;;;;;;5031670;28;20184;-88
2021/09/20 02:37:57;;;;;;;0.55;0.40;;;;;;;;;;5030389;28;20033;-88
2021/09/20 02:40:23;;;;;;;0.30;0.30;;;;;;;;;;5012137;28;20038;-88
2021/09/20 02:42:49;;;;;;;0.40;0.40;;;;;;;;;;5028982;28;20462;-88
2021/09/20 02:45:15;;;;;;;1.95;1.05;;;;;;;;;;5025336;28;20036;-88
2021/09/20 02:47:42;;;;;;;0.40;0.30;;;;;;;;;;5012815;28;20108;-88
2021/09/20 02:50:09;;;;;;;0.20;0.20;;;16.70;75.40;;;;;;5030886;28;20461;-87
2021/09/20 02:52:35;;;;;;;1.50;0.40;;;;;;;;;;5028279;28;20112;-88
2021/09/20 02:55:01;;;;;;;0.30;0.30;;;;;;;;;;5043582;28;20030;-88
2021/09/20 02:57:27;;;;;;;2.40;0.30;;;;;;;;;;5026680;28;20033;-88
2021/09/20 02:59:53;;;;;;;0.30;0.30;;;;;;;;;;5028211;28;20052;-88
2021/09/20 03:02:19;;;;;;;0.47;0.45;;;;;;;;;;5028725;28;20032;-89
2021/09/20 03:04:45;;;;;;;0.30;0.30;;;;;;;;;;5027331;28;20030;-87
2021/09/20 03:07:11;;;;;;;0.45;0.30;;;;;;;;;;5012536;28;20076;-88
2021/09/20 03:09:37;;;;;;;0.77;0.50;;;;;;;;;;5014295;28;20057;-89
2021/09/20 03:12:03;;;;;;;0.38;0.30;;;;;;;;;;5023822;28;20025;-88
2021/09/20 03:14:29;;;;;;;0.40;0.40;;;;;;;;;;5030129;28;20033;-86
2021/09/20 03:16:55;;;;;;;0.35;0.35;;;;;;;;;;5029916;28;20026;-88
2021/09/20 03:19:21;;;;;;;1.85;0.40;;;;;;;;;;5031373;28;20107;-89
2021/09/20 03:21:47;;;;;;;0.30;0.30;;;;;;;;;;5046673;28;20057;-88
2021/09/20 03:24:13;;;;;;;3.33;0.47;;;;;;;;;;5031724;28;20053;-87
2021/09/20 03:26:40;;;;;;;0.30;0.30;;;;;;;;;;5026250;28;20079;-87
2021/09/20 03:29:07;;;;;;;0.30;0.30;;;;;;;;;;5030874;28;20120;-88
2021/09/20 03:31:33;;;;;;;0.50;0.50;;;;;;;;;;5031656;28;20062;-88
2021/09/20 03:33:59;;;;;;;0.47;0.47;;;;;;;;;;5029636;28;20395;-87
2021/09/20 03:36:25;;;;;;;0.30;0.30;;;;;;;;;;5032450;28;20030;-88
2021/09/20 03:38:51;;;;;;;0.22;0.22;;;;;;;;;;5015916;28;20022;-89
2021/09/20 03:41:18;;;;;;;1.83;0.65;;;16.50;76.30;;;;;;5040727;28;20046;-90
2021/09/20 03:43:44;;;;;;;0.30;0.30;;;;;;;;;;5013071;28;20097;-88
2021/09/20 03:46:10;;;;;;;0.25;0.25;;;;;;;;;;5013705;28;20029;-88
2021/09/20 03:48:36;;;;;;;0.63;0.40;;;16.60;76.10;;;;;;5015661;28;20026;-88
2021/09/20 03:51:03;;;;;;;0.82;0.30;;;16.80;76.10;;;;;;5024052;28;20025;-89
2021/09/20 03:53:29;;;;;;;0.32;0.32;;;;;;;;;;5030648;28;20063;-88
2021/09/20 03:55:55;;;;;;;0.70;0.30;;;;;;;;;;5029151;28;20034;-88
2021/09/20 03:58:21;;;;;;;0.32;0.30;;;;;;;;;;5030506;28;20057;-88
2021/09/20 04:00:47;;;;;;;0.30;0.30;;;;;;;;;;5030160;28;20850;-89
2021/09/20 04:03:13;;;;;;;0.30;0.30;;;;;;;;;;5018293;28;20022;-88
2021/09/20 04:05:39;;;;;;;0.40;0.40;;;;;;;;;;5019599;28;20032;-88
2021/09/20 04:08:07;;;;;;;0.80;0.40;;;;;;;;;;5028654;28;20489;-88
2021/09/20 04:10:32;;;;;;;;;;;16.80;75.50;;;;;;5047426;28;20482;-89
2021/09/20 04:12:58;;;;;;;0.32;0.32;;;;;;;;;;5029374;28;19909;-89
2021/09/20 04:15:24;;;;;;;0.20;0.20;;;;;;;;;;5030865;28;20040;-88
2021/09/20 04:17:50;;;;;;;0.20;0.20;;;;;;;;;;5029501;28;20487;-90
2021/09/20 04:20:16;;;;;;;3.45;0.30;;;;;;;;;;5029884;28;20495;-88
2021/09/20 04:22:42;;;;;;;0.20;0.20;;;;;;;;;;5014909;28;20022;-88
2021/09/20 04:25:09;;;;;;;0.40;0.30;;;;;;;;;;5034979;28;20733;-88
2021/09/20 04:27:35;;;;;;;0.65;0.52;;;;;;;;;;5033732;28;20029;-89
2021/09/20 04:30:01;;;;;;;0.20;0.20;;;;;;;;;;5029620;28;20038;-91
2021/09/20 04:32:27;;;;;;;0.20;0.20;;;;;;;;;;5021740;28;20049;-89
2021/09/20 04:34:53;;;;;;;0.75;0.40;;;;;;;;;;5034279;28;20041;-89
2021/09/20 04:37:20;;;;;;;0.32;0.30;;;;;;;;;;5029236;28;20036;-88
2021/09/20 04:39:46;;;;;;;1.27;0.30;;;16.90;75.10;;;;;;5050157;28;20088;-89
2021/09/20 04:42:13;;;;;;;0.75;0.40;;;;;;;;;;5025181;28;20037;-89
2021/09/20 04:44:39;;;;;;;4.07;0.90;;;;;;;;;;5031118;28;20036;-88
2021/09/20 04:47:05;;;;;;;0.75;0.47;;;;;;;;;;5017004;28;20025;-88
2021/09/20 04:49:31;;;;;;;0.45;0.20;;;;;;;;;;5015185;28;20030;-89
2021/09/20 04:51:57;;;;;;;0.30;0.30;;;;;;;;;;5034312;28;20041;-88
2021/09/20 04:54:23;;;;;;;0.30;0.30;;;;;;;;;;5032659;28;20028;-89
2021/09/20 04:56:49;;;;;;;0.40;0.40;;;;;;;;;;5034470;28;20060;-89
2021/09/20 04:59:15;;;;;;;0.20;0.20;;;;;;;;;;5031985;28;20494;-89
2021/09/20 05:01:41;;;;;;;0.38;0.38;;;;;;;;;;5028106;28;20022;-89
2021/09/20 05:04:09;;;;;;;0.20;0.20;;;;;;;;;;5045765;28;20025;-88
2021/09/20 05:06:35;;;;;;;0.20;0.20;;;;;;;;;;5022693;28;20109;-89
2021/09/20 05:09:03;;;;;;;1.35;1.25;;;;;;;;;;5031138;28;20498;-89
2021/09/20 05:11:29;;;;;;;0.30;0.30;;;;;;;;;;5036948;28;20113;-88
2021/09/20 05:13:55;;;;;;;0.70;0.68;;;;;;;;;;5033669;28;20069;-87
2021/09/20 05:16:21;;;;;;;1.10;0.40;;;;;;;;;;5034231;28;20025;-88
2021/09/20 05:18:47;;;;;;;1.02;0.60;;;;;;;;;;5048223;28;20057;-88
2021/09/20 05:21:13;;;;;;;0.65;0.47;;;;;;;;;;5028757;28;20521;-88
2021/09/20 05:23:39;;;;;;;0.40;0.40;;;;;;;;;;5044782;28;20049;-90
2021/09/20 05:26:05;;;;;;;0.30;0.30;;;;;;;;;;5032710;28;20060;-89
2021/09/20 05:28:31;;;;;;;0.45;0.45;;;;;;;;;;5014476;28;20026;-88
2021/09/20 05:30:57;;;;;;;0.70;0.55;;;;;;;;;;5031417;28;20533;-88
2021/09/20 05:33:23;;;;;;;0.30;0.30;;;;;;;;;;5018830;28;20024;-86
2021/09/20 05:35:49;;;;;;;1.15;0.80;;;;;;;;;;5023630;28;20105;-86
2021/09/20 05:38:15;;;;;;;1.00;0.52;;;;;;;;;;5028544;28;20021;-85
2021/09/20 05:40:44;;;;;;;1.17;0.60;;;;;;;;;;5043295;28;20426;-86
2021/09/20 05:43:11;;;;;;;0.52;0.52;;;;;;;;;;5036847;28;20025;-85
2021/09/20 05:45:37;;;;;;;0.40;0.40;;;;;;;;;;5018661;28;20026;-84
2021/09/20 05:48:04;;;;;;;0.40;0.40;;;;;;;;;;5016916;28;20076;-87
2021/09/20 05:50:30;;;;;;;3.40;0.55;;;;;;;;;;5026573;28;20127;-85
2021/09/20 05:52:56;;;;;;;7.78;1.63;;;;;;;;;;5024362;28;20025;-85
2021/09/20 05:55:22;;;;;;;0.63;0.43;;;;;;;;;;5027382;28;20037;-84
2021/09/20 05:57:49;;;;;;;0.47;0.47;;;;;;;;;;5016374;28;20383;-85
2021/09/20 06:00:15;;;;;;;0.93;0.50;;;;;;;;;;5034840;28;20041;-85
2021/09/20 06:02:41;;;;;;;0.85;0.63;;;;;;;;;;5015428;28;20025;-85
2021/09/20 06:05:08;;;;;;;0.68;0.60;;;16.70;75.80;;;;;;5013581;28;20025;-85
2021/09/20 06:07:35;;;;;;;0.90;0.65;;;;;;;;;;5024506;28;20034;-85
2021/09/20 06:10:01;;;;;;;1.13;0.90;;;;;;;;;;5023563;28;20041;-85
2021/09/20 06:12:27;;;;;;;0.93;0.70;;;;;;;;;;5039215;28;20052;-85
2021/09/20 06:14:53;;;;;;;0.80;0.60;;;;;;;;;;5026300;28;20174;-86
2021/09/20 06:17:19;;;;;;;1.55;0.55;;;;;;;;;;5027780;28;20045;-85
2021/09/20 06:19:47;;;;;;;9.32;1.20;;;;;;;;;;5012986;28;20030;-87
2021/09/20 06:22:13;;;;;;;0.70;0.70;;;;;;;;;;5028120;28;20032;-85
2021/09/20 06:24:39;;;;;;;1.17;0.70;;;;;;;;;;5038686;28;20052;-86
2021/09/20 06:27:05;;;;;;;2.15;0.77;;;;;;;;;;5039103;28;20033;-86
2021/09/20 06:29:31;;;;;;;0.50;0.50;;;;;;;;;;5043883;28;20025;-85
2021/09/20 06:31:58;;;;;;;0.40;0.40;;;;;;;;;;5033712;28;20045;-85
2021/09/20 06:34:26;;;;;;;0.30;0.30;;;;;;;;;;5024199;28;20482;-85
2021/09/20 06:36:52;;;;;;;1.52;0.70;;;;;;;;;;5023901;28;20056;-91
2021/09/20 06:39:18;;;;;;;1.02;0.65;;;;;;;;;;5030044;28;20041;-91
2021/09/20 06:41:44;;;;;;;1.55;0.43;;;;;;;;;;5045639;28;20040;-87
2021/09/20 06:44:10;;;;;;;0.77;0.60;;;;;;;;;;5042433;28;20029;-88
2021/09/20 06:46:37;;;;;;;1.70;0.63;;;;;;;;;;5043915;28;20029;-89
2021/09/20 06:49:06;;;;;;;1.27;0.77;;;;;;;;;;5026550;28;20083;-86
2021/09/20 06:51:33;;;;;;;1.40;0.75;;;;;;;;;;5022113;28;20028;-86
2021/09/20 06:53:59;;;;;;;0.47;0.47;;;;;;;;;;5035185;28;20857;-86
2021/09/20 06:56:25;;;;;;;1.40;0.57;;;;;;;;;;5038045;28;20030;-86
2021/09/20 06:58:51;;;;;;;0.63;0.60;;;;;;;;;;5022373;28;20111;-84
2021/09/20 07:01:17;;;;;;;1.00;0.65;;;;;;;;;;5029982;28;20029;-86
2021/09/20 07:03:44;;;;;;;0.60;0.60;;;;;;;;;;5020962;28;20112;-85
2021/09/20 07:06:10;;;;;;;0.73;0.68;;;;;;;;;;5026454;28;20029;-87
2021/09/20 07:08:36;;;;;;;1.45;0.90;;;;;;;;;;5030136;28;20483;-86
2021/09/20 07:11:02;;;;;;;0.60;0.50;;;;;;;;;;5035385;28;20035;-96
2021/09/20 07:13:31;;;;;;;1.20;0.70;;;;;;;;;;5056390;28;20025;-96
2021/09/20 07:15:57;;;;;;;4.47;0.75;;;;;;;;;;5038173;28;20121;-96
2021/09/20 07:18:23;;;;;;;0.82;0.63;;;;;;;;;;5050474;28;20017;-96
2021/09/20 07:20:49;;;;;;;0.63;0.60;;;;;;;;;;5042089;28;20022;-95
2021/09/20 07:23:16;;;;;;;3.50;0.60;;;;;;;;;;5042039;28;20030;-91
2021/09/20 07:25:42;;;;;;;1.08;0.82;;;;;;;;;;5028240;28;20052;-84
2021/09/20 07:28:08;;;;;;;0.57;0.57;;;;;;;;;;5018870;28;20029;-83
2021/09/20 07:30:34;;;;;;;1.70;0.80;;;;;;;;;;5031871;28;20022;-83
2021/09/20 07:33:00;;;;;;;0.60;0.60;;;;;;;;;;5014741;28;20114;-84
2021/09/20 07:35:26;;;;;;;2.95;0.77;;;;;;;;;;5022139;28;22833;-84
2021/09/20 07:37:53;;;;;;;1.42;0.80;;;;;;;;;;5018498;28;20029;-84
2021/09/20 07:40:22;;;;;;;2.83;0.73;;;;;;;;;;5021933;28;20041;-86
2021/09/20 07:42:49;;;;;;;7.60;0.95;;;;;;;;;;5017206;28;20562;-86
2021/09/20 07:45:15;;;;;;;0.50;0.50;;;;;;;;;;5029573;28;20084;-84
2021/09/20 07:47:41;;;;;;;0.55;0.52;;;;;;;;;;5021338;28;20400;-85
2021/09/20 07:50:08;;;;;;;0.60;0.60;;;;;;;;;;5041880;28;20047;-87
2021/09/20 07:52:34;;;;;;;3.08;0.95;;;;;;;;;;5016988;28;20048;-87
2021/09/20 07:55:00;;;;;;;1.52;0.75;;;;;;;;;;5021342;28;20033;-86
2021/09/20 07:57:26;;;;;;;1.55;0.60;;;;;;;;;;5027635;28;20033;-85
2021/09/20 07:59:53;;;;;;;0.90;0.55;;;;;;;;;;5027254;28;20037;-85
2021/09/20 08:02:19;;;;;;;0.95;0.70;;;;;;;;;;5025634;28;20037;-86
2021/09/20 08:04:45;;;;;;;2.80;1.17;;;;;;;;;;5040434;28;20029;-86
2021/09/20 08:07:11;;;;;;;1.20;0.60;;;;;;;;;;5023708;28;20119;-86
2021/09/20 08:09:37;;;;;;;1.92;1.48;;;;;;;;;;5034041;28;20112;-85
2021/09/20 08:12:03;;;;;;;0.88;0.60;;;;;;;;;;5025478;28;20119;-85
2021/09/20 08:14:29;;;;;;;3.75;1.63;;;;;;;;;;5011609;28;20140;-84
2021/09/20 08:16:56;;;;;;;1.10;1.00;;;;;;;;;;5033055;28;28703;-85
2021/09/20 08:19:22;;;;;;;4.88;1.08;;;;;;;;;;5043949;28;20041;-86
2021/09/20 08:21:48;;;;;;;3.40;1.35;;;;;;;;;;5042578;28;20037;-86
2021/09/20 08:24:15;;;;;;;1.37;0.70;;;;;;;;;;5030883;28;20037;-86
2021/09/20 08:26:41;;;;;;;9.52;2.10;;;;;;;;;;5036686;28;20026;-86
2021/09/20 08:29:07;;;;;;;1.35;1.13;;;;;;;;;;5029436;28;20065;-87
2021/09/20 08:31:33;;;;;;;5.45;1.00;;;;;;;;;;5034107;28;20025;-86
2021/09/20 08:34:00;;;;;;;2.88;1.20;;;;;;;;;;5022979;28;20025;-86
2021/09/20 08:36:26;;;;;;;1.95;1.15;;;;;;;;;;5023162;28;20036;-85
2021/09/20 08:38:52;;;;;;;2.47;0.80;;;;;;;;;;5025806;28;20055;-84
2021/09/20 08:41:18;;;;;;;1.95;1.15;;;;;;;;;;5029008;28;20551;-85
2021/09/20 08:43:44;;;;;;;3.35;1.13;;;;;;;;;;5017151;28;20037;-84
2021/09/20 08:46:10;;;;;;;2.33;1.00;;;;;;;;;;5023455;28;20021;-84
2021/09/20 08:48:49;;;;;;;1.42;1.27;;;17.40;74.20;;;;;;5023569;28;20039;-84
2021/09/20 08:51:19;;;;;;;2.08;1.48;;;;;;;;;;5019311;28;20025;-83
2021/09/20 08:53:45;;;;;;;2.05;0.98;;;;;;;;;;5017910;28;20025;-85
2021/09/20 08:56:11;;;;;;;2.35;1.17;;;;;;;;;;5021646;28;20719;-84
2021/09/20 08:58:38;;;;;;;0.50;0.50;;;;;;;;;;5025025;28;20025;-85
2021/09/20 09:01:04;;;;;;;1.33;1.23;;;;;;;;;;5025140;28;20068;-85
2021/09/20 09:03:31;;;;;;;1.80;1.15;;;;;;;;;;5020634;28;20035;-85
2021/09/20 09:05:57;;;;;;;7.68;1.05;;;;;;;;;;5020769;28;20038;-85
2021/09/20 09:08:34;;;;;;;1.50;0.70;;;;;;;;;;5027622;28;20025;-87
2021/09/20 09:11:05;;;;;;;0.52;0.52;;;;;;;;;;5018347;28;20494;-85
2021/09/20 09:13:34;;;;;;;2.60;0.60;;;;;;;;;;5017031;28;20120;-85
2021/09/20 09:16:11;;;;;;;2.65;0.52;;;;;;;;;;5022827;28;20053;-84
2021/09/20 09:19:00;;;;;;;0.30;0.30;;;17.60;73.20;;;;;;5022292;28;20029;-86
2021/09/20 09:21:30;;;;;;;1.45;0.35;;;;;;;;;;5027400;28;20041;-85
2021/09/20 09:24:07;;;;;;;0.30;0.30;;;;;;;;;;5017660;28;20041;-85
2021/09/20 09:26:33;;;;;;;0.20;0.20;;;;;;;;;;5018613;28;20029;-84
2021/09/20 09:29:07;;;;;;;0.52;0.52;;;;;;;;;;5024834;28;20117;-85
2021/09/20 09:31:40;;;;;;;0.60;0.40;;;;;;;;;;5028070;28;20026;-84
2021/09/20 09:34:35;;;;;;;1.52;0.95;;;;;;;;;;5022811;28;20108;-84
2021/09/20 09:37:11;;;;;;;0.30;0.30;;;;;;;;;;5009061;28;20073;-86
2021/09/20 09:39:38;;;;;;;2.47;0.40;;;;;;;;;;5019187;28;20188;-85
2021/09/20 09:42:04;;;;;;;0.83;0.70;;;;;;;;;;5024861;28;20071;-84
2021/09/20 09:44:32;;;;;;;0.47;0.47;;;;;;;;;;5020216;28;20391;-84
2021/09/20 09:46:59;;;;;;;0.60;0.47;;;;;;;;;;5025640;28;20044;-84
2021/09/20 09:49:26;;;;;;;0.40;0.40;;;;;;;;;;5023597;28;20013;-84
2021/09/20 09:51:52;;;;;;;0.43;0.43;;;;;;;;;;5019880;28;20057;-85
2021/09/20 09:54:25;;;;;;;0.95;0.40;;;;;;;;;;5021828;28;20849;-85
2021/09/20 09:57:09;;;;;;;0.40;0.40;;;;;;;;;;5025589;28;20040;-85
2021/09/20 09:59:35;;;;;;;0.40;0.40;;;;;;;;;;5026923;28;20057;-84
2021/09/20 10:02:15;;;;;;;1.35;0.45;;;;;;;;;;5022266;28;20133;-84
2021/09/20 10:04:49;;;;;;;0.40;0.40;;;;;;;;;;5021766;28;20047;-86
2021/09/20 10:07:21;;;;;;;0.95;0.60;;;;;;;;;;5027419;28;20480;-85
2021/09/20 10:09:47;;;;;;;1.02;0.60;;;;;;;;;;5024231;28;20084;-85
2021/09/20 10:12:14;;;;;;;0.80;0.60;;;;;;;;;;5026319;28;20036;-86
2021/09/20 10:14:40;;;;;;;3.03;0.47;;;;;;;;;;5021397;28;20116;-86
2021/09/20 10:17:08;;;;;;;1.15;0.50;;;;;;;;;;5023064;28;20494;-85
2021/09/20 10:19:35;;;;;;;1.65;0.47;;;;;;;;;;5025941;28;20071;-85
2021/09/20 10:22:01;;;;;;;1.35;0.32;;;;;;;;;;5024710;28;20061;-84
2021/09/20 10:24:27;;;;;;;0.65;0.55;;;;;;;;;;5034339;28;20050;-85
2021/09/20 10:26:54;;;;;;;0.75;0.40;;;;;;;;;;5017392;28;20044;-85
2021/09/20 10:29:20;;;;;;;0.80;0.60;;;;;;;;;;5023666;28;20521;-85
2021/09/20 10:31:49;;;;;;;0.75;0.70;;;;;;;;;;5027092;28;20064;-84
2021/09/20 10:34:18;;;;;;;0.90;0.60;;;;;;;;;;5021540;28;20033;-84
2021/09/20 10:37:01;;;;;;;0.77;0.50;;;;;;;;;;5020914;28;20041;-84
2021/09/20 10:39:50;;;;;;;0.38;0.38;;;;;;;;;;5035279;28;20104;-85
2021/09/20 10:42:35;;;;;;;0.50;0.50;;;;;;;;;;5019052;28;20121;-85
2021/09/20 10:45:08;;;;;;;1.67;0.65;;;17.80;72.90;;;;;;5016068;28;20034;-86
2021/09/20 10:47:42;;;;;;;0.52;0.45;;;;;;;;;;5024747;28;20027;-85
2021/09/20 10:50:08;;;;;;;1.02;0.90;;;;;;;;;;5019506;28;20444;-85
2021/09/20 10:52:34;;;;;;;1.83;1.03;;;;;;;;;;5021081;28;20029;-86
2021/09/20 10:55:09;;;;;;;0.70;0.45;;;;;;;;;;5022901;28;20032;-85
2021/09/20 10:57:35;;;;;;;0.60;0.52;;;;;;;;;;5021799;28;20403;-86
2021/09/20 11:00:19;;;;;;;0.40;0.40;;;;;;;;;;5020058;28;20605;-85
2021/09/20 11:02:45;;;;;;;0.85;0.70;;;;;;;;;;5022052;28;20107;-86
2021/09/20 11:05:11;;;;;;;1.38;0.80;;;;;;;;;;5037369;28;20029;-85
2021/09/20 11:07:45;;;;;;;2.08;1.20;;;;;;;;;;5025933;28;20049;-86
2021/09/20 11:10:11;;;;;;;0.30;0.30;;;;;;;;;;5020875;28;20037;-86
2021/09/20 11:12:57;;;;;;;0.40;0.40;;;;;;;;;;5034256;28;20036;-85
2021/09/20 11:15:23;;;;;;;1.10;0.60;;;;;;;;;;5020878;28;20117;-86
2021/09/20 11:17:50;;;;;;;0.63;0.47;;;;;;;;;;5025545;28;20072;-86
2021/09/20 11:20:25;;;;;;;3.30;0.90;;;;;;;;;;5017139;28;20038;-85
2021/09/20 11:23:11;;;;;;;2.05;0.82;;;;;;;;;;5021317;28;20022;-86
2021/09/20 11:25:37;;;;;;;2.13;0.70;;;;;;;;;;5020236;28;20124;-85
2021/09/20 11:28:03;;;;;;;1.15;0.93;;;;;;;;;;5016713;28;20025;-85
2021/09/20 11:30:29;;;;;;;1.77;0.60;;;;;;;;;;5020914;28;20034;-84
2021/09/20 11:33:00;;;;;;;1.27;0.90;;;;;;;;;;5021242;28;20478;-86
2021/09/20 11:35:30;;;;;;;0.88;0.82;;;;;;;;;;5023226;28;20112;-86
2021/09/20 11:38:00;;;;;;;0.95;0.73;;;;;;;;;;5021421;28;20073;-86
2021/09/20 11:40:27;;;;;;;1.85;0.68;;;;;;;;;;5037159;28;20037;-85
2021/09/20 11:42:55;;;;;;;0.50;0.50;;;;;;;;;;5033671;28;20021;-85
2021/09/20 11:45:25;;;;;;;0.75;0.55;;;;;;;;;;5024768;28;20073;-85
2021/09/20 11:47:56;;;;;;;0.70;0.52;;;18.40;72.60;;;;;;5025949;28;20033;-84
2021/09/20 11:50:33;;;;;;;0.47;0.47;;;;;;;;;;5027235;28;20040;-85
2021/09/20 11:53:01;;;;;;;0.77;0.70;;;;;;;;;;5022175;28;20034;-86
2021/09/20 11:55:33;;;;;;;0.90;0.60;;;;;;;;;;5029847;28;20178;-86
2021/09/20 11:58:00;;;;;;;2.05;0.57;;;;;;;;;;5030890;28;20402;-86
2021/09/20 12:00:30;;;;;;;0.70;0.60;;;;;;;;;;5023620;28;20041;-84
2021/09/20 12:02:57;;;;;;;0.30;0.30;;;;;;;;;;5027536;28;20103;-85
2021/09/20 12:05:33;;;;;;;1.50;0.73;;;;;;;;;;5030521;28;20474;-85
2021/09/20 12:08:00;;;;;;;1.27;0.65;;;;;;;;;;5029195;28;20037;-85
2021/09/20 12:10:28;;;;;;;0.45;0.45;;;;;;;;;;5041432;28;20030;-85
2021/09/20 12:12:55;;;;;;;1.58;0.95;;;;;;;;;;5033249;28;20041;-85
2021/09/20 12:15:21;;;;;;;;;;;;;;;;;;5025051;28;20072;-85
2021/09/20 12:17:47;;;;;;;0.40;0.40;;;;;;;;;;5030726;28;20332;-85
2021/09/20 12:20:15;;;;;;;0.75;0.60;;;18.60;70.20;;;;;;5024532;28;20052;-85
2021/09/20 12:22:42;;;;;;;0.82;0.70;;;;;;;;;;5029581;28;20112;-85
2021/09/20 12:25:37;;;;;;;0.70;0.50;;;;;;;;;;5041887;28;20060;-85
2021/09/20 12:28:04;;;;;;;0.73;0.60;;;;;;;;;;5006497;28;20041;-86
2021/09/20 12:30:32;;;;;;;0.43;0.43;;;;;;;;;;5025103;28;20117;-85
2021/09/20 12:33:05;;;;;;;1.02;0.52;;;;;;;;;;5024725;28;20126;-86
2021/09/20 12:35:31;;;;;;;0.73;0.70;;;;;;;;;;5026935;28;20030;-85
2021/09/20 12:38:13;;;;;;;0.75;0.47;;;;;;;;;;5026991;28;20489;-85
2021/09/20 12:40:39;;;;;;;1.50;1.35;;;;;;;;;;5025682;28;20043;-85
2021/09/20 12:43:07;;;;;;;0.28;0.28;;;;;;;;;;5025982;28;20049;-86
2021/09/20 12:45:41;;;;;;;1.63;0.32;;;;;;;;;;5026870;28;20039;-85
2021/09/20 12:48:07;;;;;;;2.05;0.40;;;;;;;;;;5028109;28;20053;-85
2021/09/20 12:50:38;;;;;;;0.30;0.30;;;;;;;;;;5043649;28;20379;-85
2021/09/20 12:53:04;;;;;;;0.47;0.38;;;;;;;;;;5018131;28;20051;-86
2021/09/20 12:55:36;;;;;;;0.20;0.20;;;;;;;;;;5043365;28;20020;-85
2021/09/20 12:58:02;;;;;;;0.98;0.30;;;;;;;;;;5038110;28;20461;-84
2021/09/20 13:00:33;;;;;;;0.20;0.20;;;18.80;68.70;;;;;;5038581;28;20665;-86
2021/09/20 13:03:12;;;;;;;0.30;0.30;;;;;;;;;;5040003;28;20040;-85
2021/09/20 13:05:49;;;;;;;0.25;0.25;;;;;;;;;;5025625;28;20048;-86
2021/09/20 13:08:16;;;;;;;0.63;0.20;;;;;;;;;;5024700;28;20026;-85
2021/09/20 13:10:45;;;;;;;0.22;0.22;;;;;;;;;;5026218;28;20100;-86
2021/09/20 13:13:12;;;;;;;0.20;0.20;;;;;;;;;;5023487;28;20055;-86
2021/09/20 13:15:45;;;;;;;1.67;0.30;;;;;;;;;;5021717;28;20040;-86
2021/09/20 13:18:22;;;;;;;1.15;0.40;;;;;;;;;;5020537;28;20030;-86
2021/09/20 13:20:48;;;;;;;;;;;;;;;;;;5024155;28;20414;-85
2021/09/20 13:23:16;;;;;;;0.32;0.30;;;;;;;;;;5036959;28;19924;-84
2021/09/20 13:25:48;;;;;;;0.20;0.20;;;;;;;;;;5026242;28;20075;-85
2021/09/20 13:28:15;;;;;;;0.63;0.63;;;;;;;;;;5022420;28;20033;-85
2021/09/20 13:30:46;;;;;;;0.35;0.30;;;;;;;;;;5039774;28;20037;-86
2021/09/20 13:33:12;;;;;;;0.40;0.30;;;;;;;;;;5034275;28;20407;-88
2021/09/20 13:35:47;;;;;;;0.50;0.30;;;19.10;66.80;;;;;;5032089;28;20052;-87
2021/09/20 13:38:14;;;;;;;0.20;0.20;;;;;;;;;;5025475;28;20280;-85
2021/09/20 13:40:40;;;;;;;0.63;0.40;;;;;;;;;;5027832;28;20367;-86
2021/09/20 13:43:07;;;;;;;0.85;0.30;;;;;;;;;;5019598;28;20040;-87
2021/09/20 13:45:33;;;;;;;0.47;0.47;;;;;;;;;;5039515;28;20494;-87
2021/09/20 13:48:08;;;;;;;1.37;0.50;;;;;;;;;;5030827;28;20046;-86
2021/09/20 13:50:35;;;;;;;2.50;0.77;;;;;;;;;;5021892;28;20623;-86
2021/09/20 13:53:01;;;;;;;0.98;0.73;;;;;;;;;;5019106;28;20566;-87
2021/09/20 13:55:28;;;;;;;1.02;0.50;;;;;;;;;;5040125;28;20036;-86
2021/09/20 13:57:55;;;;;;;2.10;1.33;;;;;;;;;;5020552;28;20028;-85
2021/09/20 14:00:27;;;;;;;;;;;19.40;64.50;;;;;;5022060;28;20472;-83
2021/09/20 14:02:54;;;;;;;0.98;0.88;;;;;;;;;;5023425;28;20015;-87
2021/09/20 14:05:20;;;;;;;0.75;0.65;;;;;;;;;;5025912;28;20026;-86
2021/09/20 14:07:46;;;;;;;0.52;0.50;;;;;;;;;;5026505;28;20041;-87
2021/09/20 14:10:14;;;;;;;1.50;1.02;;;;;;;;;;5026470;28;20022;-86
2021/09/20 14:12:41;;;;;;;2.35;0.73;;;;;;;;;;5017427;28;20034;-86
2021/09/20 14:15:08;;;;;;;0.60;0.50;;;;;;;;;;5029353;28;20123;-86
2021/09/20 14:17:34;;;;;;;0.65;0.65;;;;;;;;;;5043142;28;20486;-87
2021/09/20 14:20:01;;;;;;;0.95;0.50;;;;;;;;;;5017263;28;20691;-86
2021/09/20 14:22:29;;;;;;;0.95;0.40;;;;;;;;;;5024227;28;20081;-84
2021/09/20 14:24:55;;;;;;;0.50;0.50;;;;;;;;;;5022611;28;20052;-83
2021/09/20 14:27:22;;;;;;;0.77;0.65;;;;;;;;;;5034154;28;20080;-84
2021/09/20 14:29:48;;;;;;;1.00;0.50;;;;;;;;;;5022742;28;20136;-84
2021/09/20 14:32:14;;;;;;;0.50;0.43;;;;;;;;;;5021069;28;20026;-83
2021/09/20 14:34:41;;;;;;;3.13;0.52;;;;;;;;;;5022300;28;20029;-84
2021/09/20 14:37:07;;;;;;;0.65;0.40;;;19.40;64.10;;;;;;5026792;28;20079;-84
2021/09/20 14:39:33;;;;;;;0.55;0.40;;;;;;;;;;5024653;28;20490;-84